sensor_id;sensor_type;location;lat;lon;timestamp;P1;durP1;ratioP1;P2;durP2;ratioP2
37047;SDS011;23227;48.780;9.210;2023-08-17T00:04:46;5.32;;;2.35;;
37047;SDS011;23227;48.780;9.210;2023-08-17T00:07:48;2.78;;;1.98;;
37047;SDS011;23227;48.780;9.210;2023-08-17T00:13:55;3.20;;;1.77;;
37047;SDS011;23227;48.780;9.210;2023-08-17T00:20:00;2.75;;;1.83;;
37047;SDS011;23227;48.780;9.210;2023-08-17T00:23:06;2.67;;;1.70;;
37047;SDS011;23227;48.780;9.210;2023-08-17T00:26:10;3.10;;;1.85;;
37047;SDS011;23227;48.780;9.210;2023-08-17T00:29:13;4.43;;;2.00;;
37047;SDS011;23227;48.780;9.210;2023-08-17T00:32:16;3.50;;;1.85;;
37047;SDS011;23227;48.780;9.210;2023-08-17T00:35:21;2.25;;;1.75;;
37047;SDS011;23227;48.780;9.210;2023-08-17T00:41:27;2.42;;;2.03;;
37047;SDS011;23227;48.780;9.210;2023-08-17T00:44:31;2.13;;;1.60;;
37047;SDS011;23227;48.780;9.210;2023-08-17T00:47:35;3.22;;;2.20;;
37047;SDS011;23227;48.780;9.210;2023-08-17T00:53:40;2.00;;;1.70;;
37047;SDS011;23227;48.780;9.210;2023-08-17T00:56:44;3.53;;;2.10;;
37047;SDS011;23227;48.780;9.210;2023-08-17T00:59:47;3.22;;;2.35;;
37047;SDS011;23227;48.780;9.210;2023-08-17T01:03:05;4.13;;;1.98;;
37047;SDS011;23227;48.780;9.210;2023-08-17T01:06:08;3.13;;;1.80;;
37047;SDS011;23227;48.780;9.210;2023-08-17T01:09:11;4.15;;;1.80;;
37047;SDS011;23227;48.780;9.210;2023-08-17T01:15:20;4.07;;;1.90;;
37047;SDS011;23227;48.780;9.210;2023-08-17T01:18:26;2.35;;;1.67;;
37047;SDS011;23227;48.780;9.210;2023-08-17T01:21:35;3.17;;;2.08;;
37047;SDS011;23227;48.780;9.210;2023-08-17T01:24:41;2.50;;;2.00;;
37047;SDS011;23227;48.780;9.210;2023-08-17T01:27:44;2.03;;;1.85;;
37047;SDS011;23227;48.780;9.210;2023-08-17T01:30:49;3.25;;;2.05;;
37047;SDS011;23227;48.780;9.210;2023-08-17T01:33:57;2.38;;;1.70;;
37047;SDS011;23227;48.780;9.210;2023-08-17T01:37:01;2.83;;;2.38;;
37047;SDS011;23227;48.780;9.210;2023-08-17T01:40:09;2.83;;;2.40;;
37047;SDS011;23227;48.780;9.210;2023-08-17T01:43:12;3.92;;;2.50;;
37047;SDS011;23227;48.780;9.210;2023-08-17T01:46:16;3.15;;;2.20;;
37047;SDS011;23227;48.780;9.210;2023-08-17T01:49:20;3.42;;;2.40;;
37047;SDS011;23227;48.780;9.210;2023-08-17T01:55:26;2.97;;;2.35;;
37047;SDS011;23227;48.780;9.210;2023-08-17T01:58:29;2.67;;;2.20;;
37047;SDS011;23227;48.780;9.210;2023-08-17T02:04:34;2.50;;;2.30;;
37047;SDS011;23227;48.780;9.210;2023-08-17T02:07:37;3.30;;;2.42;;
37047;SDS011;23227;48.780;9.210;2023-08-17T02:10:41;4.35;;;2.72;;
37047;SDS011;23227;48.780;9.210;2023-08-17T02:13:44;5.95;;;2.75;;
37047;SDS011;23227;48.780;9.210;2023-08-17T02:19:49;2.83;;;2.20;;
37047;SDS011;23227;48.780;9.210;2023-08-17T02:25:55;2.95;;;2.30;;
37047;SDS011;23227;48.780;9.210;2023-08-17T02:28:59;2.22;;;1.70;;
37047;SDS011;23227;48.780;9.210;2023-08-17T02:32:01;3.30;;;2.00;;
37047;SDS011;23227;48.780;9.210;2023-08-17T02:38:07;3.40;;;2.08;;
37047;SDS011;23227;48.780;9.210;2023-08-17T02:44:13;6.57;;;2.25;;
37047;SDS011;23227;48.780;9.210;2023-08-17T02:50:18;3.65;;;2.33;;
37047;SDS011;23227;48.780;9.210;2023-08-17T02:56:25;6.40;;;2.30;;
37047;SDS011;23227;48.780;9.210;2023-08-17T02:59:28;2.78;;;2.38;;
37047;SDS011;23227;48.780;9.210;2023-08-17T03:02:30;2.78;;;2.00;;
37047;SDS011;23227;48.780;9.210;2023-08-17T03:05:33;3.40;;;2.28;;
37047;SDS011;23227;48.780;9.210;2023-08-17T03:08:36;3.08;;;1.73;;
37047;SDS011;23227;48.780;9.210;2023-08-17T03:14:42;2.10;;;1.67;;
37047;SDS011;23227;48.780;9.210;2023-08-17T03:20:47;2.88;;;2.05;;
37047;SDS011;23227;48.780;9.210;2023-08-17T03:26:54;4.68;;;2.13;;
37047;SDS011;23227;48.780;9.210;2023-08-17T03:29:56;2.30;;;2.00;;
37047;SDS011;23227;48.780;9.210;2023-08-17T03:32:59;4.53;;;1.90;;
37047;SDS011;23227;48.780;9.210;2023-08-17T03:39:04;3.45;;;2.03;;
37047;SDS011;23227;48.780;9.210;2023-08-17T03:42:08;2.83;;;2.13;;
37047;SDS011;23227;48.780;9.210;2023-08-17T03:45:11;3.15;;;2.15;;
37047;SDS011;23227;48.780;9.210;2023-08-17T03:51:16;6.07;;;4.00;;
37047;SDS011;23227;48.780;9.210;2023-08-17T03:54:18;10.43;;;4.40;;
37047;SDS011;23227;48.780;9.210;2023-08-17T03:57:22;6.85;;;4.68;;
37047;SDS011;23227;48.780;9.210;2023-08-17T04:00:26;7.50;;;4.85;;
37047;SDS011;23227;48.780;9.210;2023-08-17T04:06:31;11.65;;;5.32;;
37047;SDS011;23227;48.780;9.210;2023-08-17T04:09:33;6.28;;;4.53;;
37047;SDS011;23227;48.780;9.210;2023-08-17T04:12:37;8.18;;;4.60;;
37047;SDS011;23227;48.780;9.210;2023-08-17T04:15:40;8.50;;;4.65;;
37047;SDS011;23227;48.780;9.210;2023-08-17T04:18:43;9.20;;;5.20;;
37047;SDS011;23227;48.780;9.210;2023-08-17T04:21:45;7.57;;;5.15;;
37047;SDS011;23227;48.780;9.210;2023-08-17T04:24:48;9.32;;;6.07;;
37047;SDS011;23227;48.780;9.210;2023-08-17T04:27:52;11.32;;;5.30;;
37047;SDS011;23227;48.780;9.210;2023-08-17T04:30:55;7.78;;;5.30;;
37047;SDS011;23227;48.780;9.210;2023-08-17T04:37:00;9.85;;;5.95;;
37047;SDS011;23227;48.780;9.210;2023-08-17T04:40:03;10.52;;;6.47;;
37047;SDS011;23227;48.780;9.210;2023-08-17T04:43:09;12.80;;;5.95;;
37047;SDS011;23227;48.780;9.210;2023-08-17T04:46:12;12.32;;;5.50;;
37047;SDS011;23227;48.780;9.210;2023-08-17T04:49:15;39.50;;;10.10;;
37047;SDS011;23227;48.780;9.210;2023-08-17T04:52:18;25.52;;;7.43;;
37047;SDS011;23227;48.780;9.210;2023-08-17T04:55:20;25.30;;;7.10;;
37047;SDS011;23227;48.780;9.210;2023-08-17T05:01:27;9.52;;;5.70;;
37047;SDS011;23227;48.780;9.210;2023-08-17T05:04:30;11.20;;;5.93;;
37047;SDS011;23227;48.780;9.210;2023-08-17T05:07:33;6.40;;;4.93;;
37047;SDS011;23227;48.780;9.210;2023-08-17T05:10:35;9.52;;;5.70;;
37047;SDS011;23227;48.780;9.210;2023-08-17T05:13:39;9.38;;;5.75;;
37047;SDS011;23227;48.780;9.210;2023-08-17T05:16:42;12.02;;;6.20;;
37047;SDS011;23227;48.780;9.210;2023-08-17T05:22:47;11.40;;;5.50;;
37047;SDS011;23227;48.780;9.210;2023-08-17T05:25:50;7.70;;;5.18;;
37047;SDS011;23227;48.780;9.210;2023-08-17T05:28:54;11.02;;;6.10;;
37047;SDS011;23227;48.780;9.210;2023-08-17T05:31:56;9.55;;;5.70;;
37047;SDS011;23227;48.780;9.210;2023-08-17T05:34:59;9.15;;;5.88;;
37047;SDS011;23227;48.780;9.210;2023-08-17T05:38:01;7.93;;;5.75;;
37047;SDS011;23227;48.780;9.210;2023-08-17T05:44:08;12.57;;;5.78;;
37047;SDS011;23227;48.780;9.210;2023-08-17T05:47:11;11.30;;;5.75;;
37047;SDS011;23227;48.780;9.210;2023-08-17T05:50:16;9.05;;;5.47;;
37047;SDS011;23227;48.780;9.210;2023-08-17T05:53:19;9.65;;;5.18;;
37047;SDS011;23227;48.780;9.210;2023-08-17T05:56:22;11.80;;;4.68;;
37047;SDS011;23227;48.780;9.210;2023-08-17T05:59:26;12.43;;;4.95;;
37047;SDS011;23227;48.780;9.210;2023-08-17T06:02:29;13.02;;;4.55;;
37047;SDS011;23227;48.780;9.210;2023-08-17T06:08:34;9.20;;;4.65;;
37047;SDS011;23227;48.780;9.210;2023-08-17T06:14:41;6.65;;;4.10;;
37047;SDS011;23227;48.780;9.210;2023-08-17T06:17:43;11.18;;;3.88;;
37047;SDS011;23227;48.780;9.210;2023-08-17T06:20:46;6.15;;;3.97;;
37047;SDS011;23227;48.780;9.210;2023-08-17T06:23:51;7.35;;;4.22;;
37047;SDS011;23227;48.780;9.210;2023-08-17T06:26:54;6.40;;;4.15;;
37047;SDS011;23227;48.780;9.210;2023-08-17T06:29:58;6.65;;;3.53;;
37047;SDS011;23227;48.780;9.210;2023-08-17T06:33:01;6.05;;;3.80;;
37047;SDS011;23227;48.780;9.210;2023-08-17T06:39:06;10.10;;;4.00;;
37047;SDS011;23227;48.780;9.210;2023-08-17T06:42:10;7.32;;;3.72;;
37047;SDS011;23227;48.780;9.210;2023-08-17T06:45:13;6.38;;;3.63;;
37047;SDS011;23227;48.780;9.210;2023-08-17T06:48:19;5.75;;;3.15;;
37047;SDS011;23227;48.780;9.210;2023-08-17T06:51:22;6.25;;;3.47;;
37047;SDS011;23227;48.780;9.210;2023-08-17T06:54:24;5.93;;;3.50;;
37047;SDS011;23227;48.780;9.210;2023-08-17T06:57:27;8.90;;;4.35;;
37047;SDS011;23227;48.780;9.210;2023-08-17T07:00:31;7.13;;;3.42;;
37047;SDS011;23227;48.780;9.210;2023-08-17T07:03:35;5.63;;;3.22;;
37047;SDS011;23227;48.780;9.210;2023-08-17T07:09:42;5.05;;;3.85;;
37047;SDS011;23227;48.780;9.210;2023-08-17T07:12:44;4.97;;;3.67;;
37047;SDS011;23227;48.780;9.210;2023-08-17T07:15:48;7.15;;;3.83;;
37047;SDS011;23227;48.780;9.210;2023-08-17T07:18:51;6.93;;;3.97;;
37047;SDS011;23227;48.780;9.210;2023-08-17T07:24:56;4.55;;;3.20;;
37047;SDS011;23227;48.780;9.210;2023-08-17T07:27:59;4.70;;;3.50;;
37047;SDS011;23227;48.780;9.210;2023-08-17T07:31:03;7.30;;;3.72;;
37047;SDS011;23227;48.780;9.210;2023-08-17T07:34:07;4.82;;;3.90;;
37047;SDS011;23227;48.780;9.210;2023-08-17T07:37:09;5.35;;;3.58;;
37047;SDS011;23227;48.780;9.210;2023-08-17T07:40:15;4.90;;;2.83;;
37047;SDS011;23227;48.780;9.210;2023-08-17T07:43:18;6.72;;;3.35;;
37047;SDS011;23227;48.780;9.210;2023-08-17T07:46:22;3.50;;;3.10;;
37047;SDS011;23227;48.780;9.210;2023-08-17T07:49:25;5.72;;;3.35;;
37047;SDS011;23227;48.780;9.210;2023-08-17T07:52:47;5.75;;;3.35;;
37047;SDS011;23227;48.780;9.210;2023-08-17T07:55:50;4.03;;;3.00;;
37047;SDS011;23227;48.780;9.210;2023-08-17T07:58:56;6.93;;;3.55;;
37047;SDS011;23227;48.780;9.210;2023-08-17T08:02:00;4.65;;;3.47;;
37047;SDS011;23227;48.780;9.210;2023-08-17T08:05:03;6.63;;;3.28;;
37047;SDS011;23227;48.780;9.210;2023-08-17T08:08:06;5.47;;;3.28;;
37047;SDS011;23227;48.780;9.210;2023-08-17T08:14:11;3.72;;;3.10;;
37047;SDS011;23227;48.780;9.210;2023-08-17T08:20:18;4.18;;;3.22;;
37047;SDS011;23227;48.780;9.210;2023-08-17T08:23:20;4.97;;;3.42;;
37047;SDS011;23227;48.780;9.210;2023-08-17T08:26:23;5.80;;;3.03;;
37047;SDS011;23227;48.780;9.210;2023-08-17T08:32:29;4.35;;;3.45;;
37047;SDS011;23227;48.780;9.210;2023-08-17T08:35:32;3.88;;;3.38;;
37047;SDS011;23227;48.780;9.210;2023-08-17T08:38:35;3.90;;;3.15;;
37047;SDS011;23227;48.780;9.210;2023-08-17T08:41:38;5.05;;;3.10;;
37047;SDS011;23227;48.780;9.210;2023-08-17T08:44:41;5.28;;;3.40;;
37047;SDS011;23227;48.780;9.210;2023-08-17T08:47:45;4.68;;;3.60;;
37047;SDS011;23227;48.780;9.210;2023-08-17T08:50:47;4.95;;;3.50;;
37047;SDS011;23227;48.780;9.210;2023-08-17T08:53:56;6.05;;;3.30;;
37047;SDS011;23227;48.780;9.210;2023-08-17T08:57:03;5.20;;;3.00;;
37047;SDS011;23227;48.780;9.210;2023-08-17T09:00:09;4.07;;;3.47;;
37047;SDS011;23227;48.780;9.210;2023-08-17T09:03:15;6.60;;;3.30;;
37047;SDS011;23227;48.780;9.210;2023-08-17T09:06:19;3.97;;;3.40;;
37047;SDS011;23227;48.780;9.210;2023-08-17T09:09:23;4.95;;;3.10;;
37047;SDS011;23227;48.780;9.210;2023-08-17T09:12:29;4.60;;;3.53;;
37047;SDS011;23227;48.780;9.210;2023-08-17T09:15:40;6.45;;;3.08;;
37047;SDS011;23227;48.780;9.210;2023-08-17T09:18:44;5.07;;;3.38;;
37047;SDS011;23227;48.780;9.210;2023-08-17T09:21:47;4.88;;;3.28;;
37047;SDS011;23227;48.780;9.210;2023-08-17T09:24:51;4.50;;;3.78;;
37047;SDS011;23227;48.780;9.210;2023-08-17T09:27:54;3.97;;;3.20;;
37047;SDS011;23227;48.780;9.210;2023-08-17T09:30:59;6.38;;;3.30;;
37047;SDS011;23227;48.780;9.210;2023-08-17T09:34:06;6.40;;;3.22;;
37047;SDS011;23227;48.780;9.210;2023-08-17T09:37:09;4.28;;;3.45;;
37047;SDS011;23227;48.780;9.210;2023-08-17T09:40:14;4.32;;;3.28;;
37047;SDS011;23227;48.780;9.210;2023-08-17T09:43:22;6.75;;;3.90;;
37047;SDS011;23227;48.780;9.210;2023-08-17T09:46:26;5.43;;;3.65;;
37047;SDS011;23227;48.780;9.210;2023-08-17T09:49:31;6.57;;;3.50;;
37047;SDS011;23227;48.780;9.210;2023-08-17T09:52:38;3.20;;;2.90;;
37047;SDS011;23227;48.780;9.210;2023-08-17T09:55:41;3.50;;;3.20;;
37047;SDS011;23227;48.780;9.210;2023-08-17T09:58:44;5.97;;;3.47;;
37047;SDS011;23227;48.780;9.210;2023-08-17T10:01:48;5.55;;;3.30;;
37047;SDS011;23227;48.780;9.210;2023-08-17T10:04:58;5.30;;;3.90;;
37047;SDS011;23227;48.780;9.210;2023-08-17T10:08:01;4.65;;;3.72;;
37047;SDS011;23227;48.780;9.210;2023-08-17T10:11:05;4.85;;;3.78;;
37047;SDS011;23227;48.780;9.210;2023-08-17T10:14:12;4.32;;;3.67;;
37047;SDS011;23227;48.780;9.210;2023-08-17T10:17:19;4.68;;;3.88;;
37047;SDS011;23227;48.780;9.210;2023-08-17T10:20:29;5.60;;;3.45;;
37047;SDS011;23227;48.780;9.210;2023-08-17T10:23:32;5.60;;;3.92;;
37047;SDS011;23227;48.780;9.210;2023-08-17T10:26:35;7.30;;;3.97;;
37047;SDS011;23227;48.780;9.210;2023-08-17T10:32:40;5.85;;;3.65;;
37047;SDS011;23227;48.780;9.210;2023-08-17T10:35:48;5.65;;;3.50;;
37047;SDS011;23227;48.780;9.210;2023-08-17T10:42:30;5.65;;;3.88;;
37047;SDS011;23227;48.780;9.210;2023-08-17T10:45:34;6.05;;;3.97;;
37047;SDS011;23227;48.780;9.210;2023-08-17T10:48:39;4.43;;;3.60;;
37047;SDS011;23227;48.780;9.210;2023-08-17T10:51:55;4.75;;;4.05;;
37047;SDS011;23227;48.780;9.210;2023-08-17T10:55:03;4.63;;;3.90;;
37047;SDS011;23227;48.780;9.210;2023-08-17T10:58:07;5.10;;;4.18;;
37047;SDS011;23227;48.780;9.210;2023-08-17T11:01:13;4.30;;;3.80;;
37047;SDS011;23227;48.780;9.210;2023-08-17T11:04:22;5.38;;;3.70;;
37047;SDS011;23227;48.780;9.210;2023-08-17T11:10:29;6.15;;;4.10;;
37047;SDS011;23227;48.780;9.210;2023-08-17T11:13:33;7.20;;;4.10;;
37047;SDS011;23227;48.780;9.210;2023-08-17T11:16:36;4.82;;;3.85;;
37047;SDS011;23227;48.780;9.210;2023-08-17T11:19:39;4.03;;;3.28;;
37047;SDS011;23227;48.780;9.210;2023-08-17T11:22:43;6.90;;;3.90;;
37047;SDS011;23227;48.780;9.210;2023-08-17T11:25:47;5.78;;;4.25;;
37047;SDS011;23227;48.780;9.210;2023-08-17T11:31:52;5.15;;;4.18;;
37047;SDS011;23227;48.780;9.210;2023-08-17T11:38:01;4.75;;;4.00;;
37047;SDS011;23227;48.780;9.210;2023-08-17T11:41:09;4.55;;;4.10;;
37047;SDS011;23227;48.780;9.210;2023-08-17T11:44:15;5.88;;;3.95;;
37047;SDS011;23227;48.780;9.210;2023-08-17T11:50:20;4.72;;;4.07;;
37047;SDS011;23227;48.780;9.210;2023-08-17T11:53:24;5.10;;;3.83;;
37047;SDS011;23227;48.780;9.210;2023-08-17T11:56:27;7.55;;;4.30;;
37047;SDS011;23227;48.780;9.210;2023-08-17T11:59:30;5.40;;;4.00;;
37047;SDS011;23227;48.780;9.210;2023-08-17T12:02:34;7.38;;;4.25;;
37047;SDS011;23227;48.780;9.210;2023-08-17T12:05:45;4.85;;;4.03;;
37047;SDS011;23227;48.780;9.210;2023-08-17T12:08:49;6.22;;;3.83;;
37047;SDS011;23227;48.780;9.210;2023-08-17T12:11:56;4.20;;;3.80;;
37047;SDS011;23227;48.780;9.210;2023-08-17T12:15:00;4.63;;;4.15;;
37047;SDS011;23227;48.780;9.210;2023-08-17T12:18:03;4.28;;;3.88;;
37047;SDS011;23227;48.780;9.210;2023-08-17T12:21:07;5.43;;;4.07;;
37047;SDS011;23227;48.780;9.210;2023-08-17T12:27:15;6.90;;;3.88;;
37047;SDS011;23227;48.780;9.210;2023-08-17T12:30:26;4.68;;;3.90;;
37047;SDS011;23227;48.780;9.210;2023-08-17T12:33:30;6.72;;;4.32;;
37047;SDS011;23227;48.780;9.210;2023-08-17T12:36:32;4.75;;;3.70;;
37047;SDS011;23227;48.780;9.210;2023-08-17T12:39:37;4.28;;;3.83;;
37047;SDS011;23227;48.780;9.210;2023-08-17T12:42:40;7.28;;;4.95;;
37047;SDS011;23227;48.780;9.210;2023-08-17T12:45:43;4.90;;;4.07;;
37047;SDS011;23227;48.780;9.210;2023-08-17T12:51:48;5.82;;;4.25;;
37047;SDS011;23227;48.780;9.210;2023-08-17T12:54:52;4.20;;;3.80;;
37047;SDS011;23227;48.780;9.210;2023-08-17T12:57:54;4.53;;;3.95;;
37047;SDS011;23227;48.780;9.210;2023-08-17T13:01:02;4.35;;;3.95;;
37047;SDS011;23227;48.780;9.210;2023-08-17T13:04:05;4.35;;;3.95;;
37047;SDS011;23227;48.780;9.210;2023-08-17T13:07:07;5.72;;;3.65;;
37047;SDS011;23227;48.780;9.210;2023-08-17T13:13:14;4.82;;;4.10;;
37047;SDS011;23227;48.780;9.210;2023-08-17T13:16:16;4.60;;;3.90;;
37047;SDS011;23227;48.780;9.210;2023-08-17T13:19:19;4.68;;;3.67;;
37047;SDS011;23227;48.780;9.210;2023-08-17T13:25:27;5.93;;;4.10;;
37047;SDS011;23227;48.780;9.210;2023-08-17T13:28:29;5.90;;;3.80;;
37047;SDS011;23227;48.780;9.210;2023-08-17T13:31:32;4.18;;;3.60;;
37047;SDS011;23227;48.780;9.210;2023-08-17T13:34:34;4.10;;;3.70;;
37047;SDS011;23227;48.780;9.210;2023-08-17T13:37:37;4.30;;;3.53;;
37047;SDS011;23227;48.780;9.210;2023-08-17T13:40:41;4.65;;;3.78;;
37047;SDS011;23227;48.780;9.210;2023-08-17T13:43:43;4.15;;;3.75;;
37047;SDS011;23227;48.780;9.210;2023-08-17T13:49:48;6.57;;;4.80;;
37047;SDS011;23227;48.780;9.210;2023-08-17T13:55:55;6.25;;;3.65;;
37047;SDS011;23227;48.780;9.210;2023-08-17T13:58:57;4.22;;;3.70;;
37047;SDS011;23227;48.780;9.210;2023-08-17T14:02:00;8.15;;;3.95;;
37047;SDS011;23227;48.780;9.210;2023-08-17T14:05:04;5.63;;;4.07;;
37047;SDS011;23227;48.780;9.210;2023-08-17T14:08:07;6.15;;;4.13;;
37047;SDS011;23227;48.780;9.210;2023-08-17T14:11:13;5.63;;;3.42;;
37047;SDS011;23227;48.780;9.210;2023-08-17T14:14:16;6.93;;;3.85;;
37047;SDS011;23227;48.780;9.210;2023-08-17T14:17:18;6.80;;;3.65;;
37047;SDS011;23227;48.780;9.210;2023-08-17T14:20:21;5.72;;;3.45;;
37047;SDS011;23227;48.780;9.210;2023-08-17T14:23:24;6.75;;;3.60;;
37047;SDS011;23227;48.780;9.210;2023-08-17T14:29:33;8.27;;;3.10;;
37047;SDS011;23227;48.780;9.210;2023-08-17T14:35:38;4.72;;;3.60;;
37047;SDS011;23227;48.780;9.210;2023-08-17T14:38:40;3.88;;;3.38;;
37047;SDS011;23227;48.780;9.210;2023-08-17T14:44:47;7.35;;;3.90;;
37047;SDS011;23227;48.780;9.210;2023-08-17T14:50:52;7.40;;;4.15;;
37047;SDS011;23227;48.780;9.210;2023-08-17T14:56:59;5.68;;;3.35;;
37047;SDS011;23227;48.780;9.210;2023-08-17T15:00:02;4.07;;;3.33;;
37047;SDS011;23227;48.780;9.210;2023-08-17T15:03:05;4.10;;;3.40;;
37047;SDS011;23227;48.780;9.210;2023-08-17T15:09:28;5.25;;;3.72;;
37047;SDS011;23227;48.780;9.210;2023-08-17T15:12:32;5.07;;;3.30;;
37047;SDS011;23227;48.780;9.210;2023-08-17T15:15:35;6.07;;;3.03;;
37047;SDS011;23227;48.780;9.210;2023-08-17T15:18:38;3.60;;;3.25;;
37047;SDS011;23227;48.780;9.210;2023-08-17T15:21:40;4.97;;;3.53;;
37047;SDS011;23227;48.780;9.210;2023-08-17T15:27:47;3.95;;;3.55;;
37047;SDS011;23227;48.780;9.210;2023-08-17T15:30:59;4.20;;;3.58;;
37047;SDS011;23227;48.780;9.210;2023-08-17T15:34:03;5.53;;;3.72;;
37047;SDS011;23227;48.780;9.210;2023-08-17T15:37:06;4.85;;;3.25;;
37047;SDS011;23227;48.780;9.210;2023-08-17T15:40:09;4.80;;;3.13;;
37047;SDS011;23227;48.780;9.210;2023-08-17T15:43:14;5.93;;;3.55;;
37047;SDS011;23227;48.780;9.210;2023-08-17T15:46:16;5.10;;;3.45;;
37047;SDS011;23227;48.780;9.210;2023-08-17T15:52:22;4.55;;;3.42;;
37047;SDS011;23227;48.780;9.210;2023-08-17T15:55:24;8.70;;;3.55;;
37047;SDS011;23227;48.780;9.210;2023-08-17T15:58:28;6.85;;;3.30;;
37047;SDS011;23227;48.780;9.210;2023-08-17T16:01:31;4.50;;;3.80;;
37047;SDS011;23227;48.780;9.210;2023-08-17T16:04:34;5.15;;;3.35;;
37047;SDS011;23227;48.780;9.210;2023-08-17T16:07:36;4.30;;;3.03;;
37047;SDS011;23227;48.780;9.210;2023-08-17T16:13:43;7.25;;;3.50;;
37047;SDS011;23227;48.780;9.210;2023-08-17T16:16:47;5.93;;;3.50;;
37047;SDS011;23227;48.780;9.210;2023-08-17T16:22:52;7.72;;;3.85;;
37047;SDS011;23227;48.780;9.210;2023-08-17T16:25:54;10.25;;;3.80;;
37047;SDS011;23227;48.780;9.210;2023-08-17T16:28:58;7.80;;;3.90;;
37047;SDS011;23227;48.780;9.210;2023-08-17T16:32:02;9.55;;;3.92;;
37047;SDS011;23227;48.780;9.210;2023-08-17T16:35:08;8.98;;;4.75;;
37047;SDS011;23227;48.780;9.210;2023-08-17T16:38:11;7.70;;;4.70;;
37047;SDS011;23227;48.780;9.210;2023-08-17T16:44:18;8.13;;;4.32;;
37047;SDS011;23227;48.780;9.210;2023-08-17T16:47:21;7.88;;;3.85;;
37047;SDS011;23227;48.780;9.210;2023-08-17T16:50:28;10.32;;;3.72;;
37047;SDS011;23227;48.780;9.210;2023-08-17T16:53:34;8.68;;;3.75;;
37047;SDS011;23227;48.780;9.210;2023-08-17T16:56:44;6.20;;;4.40;;
37047;SDS011;23227;48.780;9.210;2023-08-17T17:02:50;6.35;;;4.10;;
37047;SDS011;23227;48.780;9.210;2023-08-17T17:08:55;8.20;;;3.88;;
37047;SDS011;23227;48.780;9.210;2023-08-17T17:15:02;5.50;;;3.55;;
37047;SDS011;23227;48.780;9.210;2023-08-17T17:18:06;8.40;;;4.43;;
37047;SDS011;23227;48.780;9.210;2023-08-17T17:21:10;10.93;;;4.85;;
37047;SDS011;23227;48.780;9.210;2023-08-17T17:24:13;6.28;;;4.18;;
37047;SDS011;23227;48.780;9.210;2023-08-17T17:27:16;9.45;;;4.00;;
37047;SDS011;23227;48.780;9.210;2023-08-17T17:33:24;6.53;;;3.90;;
37047;SDS011;23227;48.780;9.210;2023-08-17T17:39:29;4.63;;;3.35;;
37047;SDS011;23227;48.780;9.210;2023-08-17T17:45:35;6.70;;;3.20;;
37047;SDS011;23227;48.780;9.210;2023-08-17T17:48:38;8.40;;;4.22;;
37047;SDS011;23227;48.780;9.210;2023-08-17T17:51:41;6.25;;;3.65;;
37047;SDS011;23227;48.780;9.210;2023-08-17T17:57:46;5.32;;;3.55;;
37047;SDS011;23227;48.780;9.210;2023-08-17T18:00:50;7.55;;;3.28;;
37047;SDS011;23227;48.780;9.210;2023-08-17T18:03:54;5.07;;;3.15;;
37047;SDS011;23227;48.780;9.210;2023-08-17T18:07:01;7.88;;;3.60;;
37047;SDS011;23227;48.780;9.210;2023-08-17T18:10:05;5.45;;;3.38;;
37047;SDS011;23227;48.780;9.210;2023-08-17T18:13:08;6.72;;;4.00;;
37047;SDS011;23227;48.780;9.210;2023-08-17T18:16:12;7.10;;;3.40;;
37047;SDS011;23227;48.780;9.210;2023-08-17T18:19:20;5.40;;;3.17;;
37047;SDS011;23227;48.780;9.210;2023-08-17T18:22:23;8.57;;;4.40;;
37047;SDS011;23227;48.780;9.210;2023-08-17T18:25:25;5.75;;;3.60;;
37047;SDS011;23227;48.780;9.210;2023-08-17T18:28:29;6.43;;;3.97;;
37047;SDS011;23227;48.780;9.210;2023-08-17T18:31:33;6.13;;;3.75;;
37047;SDS011;23227;48.780;9.210;2023-08-17T18:34:41;5.95;;;3.45;;
37047;SDS011;23227;48.780;9.210;2023-08-17T18:40:47;4.22;;;3.45;;
37047;SDS011;23227;48.780;9.210;2023-08-17T18:43:52;6.05;;;3.83;;
37047;SDS011;23227;48.780;9.210;2023-08-17T18:46:56;5.20;;;3.92;;
37047;SDS011;23227;48.780;9.210;2023-08-17T18:49:58;5.03;;;3.42;;
37047;SDS011;23227;48.780;9.210;2023-08-17T18:53:01;6.10;;;3.58;;
37047;SDS011;23227;48.780;9.210;2023-08-17T18:56:04;5.47;;;3.70;;
37047;SDS011;23227;48.780;9.210;2023-08-17T19:02:11;4.20;;;3.35;;
37047;SDS011;23227;48.780;9.210;2023-08-17T19:05:13;5.57;;;3.60;;
37047;SDS011;23227;48.780;9.210;2023-08-17T19:08:16;6.25;;;4.10;;
37047;SDS011;23227;48.780;9.210;2023-08-17T19:11:19;4.47;;;3.40;;
37047;SDS011;23227;48.780;9.210;2023-08-17T19:17:25;6.05;;;3.33;;
37047;SDS011;23227;48.780;9.210;2023-08-17T19:20:29;4.35;;;3.42;;
37047;SDS011;23227;48.780;9.210;2023-08-17T19:26:34;5.20;;;3.55;;
37047;SDS011;23227;48.780;9.210;2023-08-17T19:32:40;5.88;;;3.60;;
37047;SDS011;23227;48.780;9.210;2023-08-17T19:35:43;6.45;;;3.63;;
37047;SDS011;23227;48.780;9.210;2023-08-17T19:38:46;5.68;;;3.70;;
37047;SDS011;23227;48.780;9.210;2023-08-17T19:41:49;5.47;;;3.85;;
37047;SDS011;23227;48.780;9.210;2023-08-17T19:47:55;6.50;;;3.40;;
37047;SDS011;23227;48.780;9.210;2023-08-17T19:50:58;4.28;;;3.58;;
37047;SDS011;23227;48.780;9.210;2023-08-17T19:57:03;6.78;;;3.83;;
37047;SDS011;23227;48.780;9.210;2023-08-17T20:00:06;9.25;;;5.22;;
37047;SDS011;23227;48.780;9.210;2023-08-17T20:03:13;7.85;;;5.35;;
37047;SDS011;23227;48.780;9.210;2023-08-17T20:06:16;8.93;;;5.50;;
37047;SDS011;23227;48.780;9.210;2023-08-17T20:12:21;11.10;;;5.85;;
37047;SDS011;23227;48.780;9.210;2023-08-17T20:15:24;6.45;;;5.25;;
37047;SDS011;23227;48.780;9.210;2023-08-17T20:18:29;8.00;;;5.13;;
37047;SDS011;23227;48.780;9.210;2023-08-17T20:21:31;7.38;;;5.10;;
37047;SDS011;23227;48.780;9.210;2023-08-17T20:24:34;8.93;;;4.88;;
37047;SDS011;23227;48.780;9.210;2023-08-17T20:27:37;9.50;;;4.93;;
37047;SDS011;23227;48.780;9.210;2023-08-17T20:30:40;9.95;;;4.90;;
37047;SDS011;23227;48.780;9.210;2023-08-17T20:33:44;6.30;;;4.65;;
37047;SDS011;23227;48.780;9.210;2023-08-17T20:36:47;8.27;;;4.35;;
37047;SDS011;23227;48.780;9.210;2023-08-17T20:39:50;8.93;;;4.85;;
37047;SDS011;23227;48.780;9.210;2023-08-17T20:42:53;5.90;;;4.70;;
37047;SDS011;23227;48.780;9.210;2023-08-17T20:45:56;9.57;;;4.32;;
37047;SDS011;23227;48.780;9.210;2023-08-17T20:49:00;5.13;;;4.50;;
37047;SDS011;23227;48.780;9.210;2023-08-17T20:52:05;7.97;;;4.97;;
37047;SDS011;23227;48.780;9.210;2023-08-17T20:55:09;7.47;;;4.57;;
37047;SDS011;23227;48.780;9.210;2023-08-17T21:01:14;6.18;;;4.72;;
37047;SDS011;23227;48.780;9.210;2023-08-17T21:04:18;6.88;;;4.35;;
37047;SDS011;23227;48.780;9.210;2023-08-17T21:07:21;8.70;;;4.65;;
37047;SDS011;23227;48.780;9.210;2023-08-17T21:13:26;7.25;;;4.38;;
37047;SDS011;23227;48.780;9.210;2023-08-17T21:19:33;4.90;;;4.38;;
37047;SDS011;23227;48.780;9.210;2023-08-17T21:22:36;5.35;;;4.13;;
37047;SDS011;23227;48.780;9.210;2023-08-17T21:25:39;5.78;;;4.15;;
37047;SDS011;23227;48.780;9.210;2023-08-17T21:28:42;4.85;;;3.63;;
37047;SDS011;23227;48.780;9.210;2023-08-17T21:31:44;5.88;;;4.28;;
37047;SDS011;23227;48.780;9.210;2023-08-17T21:34:49;5.70;;;3.83;;
37047;SDS011;23227;48.780;9.210;2023-08-17T21:37:51;8.30;;;4.28;;
37047;SDS011;23227;48.780;9.210;2023-08-17T21:40:55;7.88;;;3.90;;
37047;SDS011;23227;48.780;9.210;2023-08-17T21:43:59;6.65;;;3.92;;
37047;SDS011;23227;48.780;9.210;2023-08-17T21:47:01;9.52;;;3.92;;
37047;SDS011;23227;48.780;9.210;2023-08-17T21:50:09;7.72;;;4.25;;
37047;SDS011;23227;48.780;9.210;2023-08-17T21:53:13;18.45;;;4.35;;
37047;SDS011;23227;48.780;9.210;2023-08-17T21:56:16;8.68;;;4.32;;
37047;SDS011;23227;48.780;9.210;2023-08-17T22:02:21;6.53;;;3.90;;
37047;SDS011;23227;48.780;9.210;2023-08-17T22:08:27;6.90;;;3.63;;
37047;SDS011;23227;48.780;9.210;2023-08-17T22:14:32;7.43;;;3.88;;
37047;SDS011;23227;48.780;9.210;2023-08-17T22:20:39;5.28;;;3.40;;